sensor_id;sensor_type;location;lat;lon;timestamp;temperature;humidity
47857;DHT22;33618;49.972;8.242;2023-05-10T00:00:25;13.30;99.90
47857;DHT22;33618;49.972;8.242;2023-05-10T00:02:52;13.30;99.90
47857;DHT22;33618;49.972;8.242;2023-05-10T00:05:19;13.30;99.90
47857;DHT22;33618;49.972;8.242;2023-05-10T00:07:46;13.30;99.90
47857;DHT22;33618;49.972;8.242;2023-05-10T00:10:13;13.30;99.90
47857;DHT22;33618;49.972;8.242;2023-05-10T00:12:40;13.20;99.90
47857;DHT22;33618;49.972;8.242;2023-05-10T00:15:07;13.20;99.90
47857;DHT22;33618;49.972;8.242;2023-05-10T00:17:35;13.20;99.90
47857;DHT22;33618;49.972;8.242;2023-05-10T00:20:02;13.20;99.90
47857;DHT22;33618;49.972;8.242;2023-05-10T00:22:31;13.30;99.90
47857;DHT22;33618;49.972;8.242;2023-05-10T00:24:59;13.20;99.90
47857;DHT22;33618;49.972;8.242;2023-05-10T00:27:25;13.20;99.90
47857;DHT22;33618;49.972;8.242;2023-05-10T00:29:52;13.20;99.90
47857;DHT22;33618;49.972;8.242;2023-05-10T00:32:19;13.20;99.90
47857;DHT22;33618;49.972;8.242;2023-05-10T00:34:47;13.20;99.90
47857;DHT22;33618;49.972;8.242;2023-05-10T00:37:13;13.20;99.90
47857;DHT22;33618;49.972;8.242;2023-05-10T00:39:40;13.20;99.90
47857;DHT22;33618;49.972;8.242;2023-05-10T00:42:07;13.20;99.90
47857;DHT22;33618;49.972;8.242;2023-05-10T00:44:34;13.10;99.90
47857;DHT22;33618;49.972;8.242;2023-05-10T00:47:01;13.10;99.90
47857;DHT22;33618;49.972;8.242;2023-05-10T00:49:28;13.10;99.90
47857;DHT22;33618;49.972;8.242;2023-05-10T00:51:55;13.10;99.90
47857;DHT22;33618;49.972;8.242;2023-05-10T00:54:22;13.10;99.90
47857;DHT22;33618;49.972;8.242;2023-05-10T00:56:49;13.10;99.90
47857;DHT22;33618;49.972;8.242;2023-05-10T00:59:16;13.10;99.90
47857;DHT22;33618;49.972;8.242;2023-05-10T01:01:44;13.10;99.90
47857;DHT22;33618;49.972;8.242;2023-05-10T01:04:13;13.00;99.90
47857;DHT22;33618;49.972;8.242;2023-05-10T01:06:41;13.10;99.90
47857;DHT22;33618;49.972;8.242;2023-05-10T01:09:07;13.10;99.90
47857;DHT22;33618;49.972;8.242;2023-05-10T01:11:35;13.00;99.90
47857;DHT22;33618;49.972;8.242;2023-05-10T01:14:03;13.10;99.90
47857;DHT22;33618;49.972;8.242;2023-05-10T01:16:38;13.00;99.90
47857;DHT22;33618;49.972;8.242;2023-05-10T01:19:25;13.10;99.90
47857;DHT22;33618;49.972;8.242;2023-05-10T01:30:42;13.00;99.90
47857;DHT22;33618;49.972;8.242;2023-05-10T01:33:26;13.00;99.90
47857;DHT22;33618;49.972;8.242;2023-05-10T01:36:03;13.00;99.90
47857;DHT22;33618;49.972;8.242;2023-05-10T01:38:42;13.10;99.90
47857;DHT22;33618;49.972;8.242;2023-05-10T01:44:56;13.00;99.90
47857;DHT22;33618;49.972;8.242;2023-05-10T01:47:38;13.00;99.90
47857;DHT22;33618;49.972;8.242;2023-05-10T01:50:10;13.00;99.90
47857;DHT22;33618;49.972;8.242;2023-05-10T01:52:42;13.00;99.90
47857;DHT22;33618;49.972;8.242;2023-05-10T01:55:15;13.00;99.90
47857;DHT22;33618;49.972;8.242;2023-05-10T01:57:44;13.00;99.90
47857;DHT22;33618;49.972;8.242;2023-05-10T02:00:14;13.10;99.90
47857;DHT22;33618;49.972;8.242;2023-05-10T02:02:45;13.00;99.90
47857;DHT22;33618;49.972;8.242;2023-05-10T02:05:14;13.00;99.90
47857;DHT22;33618;49.972;8.242;2023-05-10T02:07:42;13.00;99.90
47857;DHT22;33618;49.972;8.242;2023-05-10T02:10:10;13.00;99.90
47857;DHT22;33618;49.972;8.242;2023-05-10T02:12:41;13.00;99.90
47857;DHT22;33618;49.972;8.242;2023-05-10T02:15:11;13.00;99.90
47857;DHT22;33618;49.972;8.242;2023-05-10T02:17:39;13.00;99.90
47857;DHT22;33618;49.972;8.242;2023-05-10T02:20:07;13.00;99.90
47857;DHT22;33618;49.972;8.242;2023-05-10T02:22:35;13.00;99.90
47857;DHT22;33618;49.972;8.242;2023-05-10T02:25:03;13.00;99.90
47857;DHT22;33618;49.972;8.242;2023-05-10T02:27:30;13.00;99.90
47857;DHT22;33618;49.972;8.242;2023-05-10T02:29:58;13.00;99.90
47857;DHT22;33618;49.972;8.242;2023-05-10T02:32:26;13.00;99.90
47857;DHT22;33618;49.972;8.242;2023-05-10T02:34:54;13.00;99.90
47857;DHT22;33618;49.972;8.242;2023-05-10T02:37:22;13.00;99.90
47857;DHT22;33618;49.972;8.242;2023-05-10T02:39:52;13.00;99.90
47857;DHT22;33618;49.972;8.242;2023-05-10T02:42:24;13.00;99.90
47857;DHT22;33618;49.972;8.242;2023-05-10T02:44:55;13.10;99.90
47857;DHT22;33618;49.972;8.242;2023-05-10T02:47:23;13.10;99.90
47857;DHT22;33618;49.972;8.242;2023-05-10T02:49:50;13.10;99.90
47857;DHT22;33618;49.972;8.242;2023-05-10T02:52:29;13.10;99.90
47857;DHT22;33618;49.972;8.242;2023-05-10T02:55:01;13.10;99.90
47857;DHT22;33618;49.972;8.242;2023-05-10T02:57:32;13.10;99.90
47857;DHT22;33618;49.972;8.242;2023-05-10T03:00:04;13.00;99.90
47857;DHT22;33618;49.972;8.242;2023-05-10T03:02:31;13.10;99.90
47857;DHT22;33618;49.972;8.242;2023-05-10T03:04:58;13.10;99.90
47857;DHT22;33618;49.972;8.242;2023-05-10T03:07:25;13.10;99.90
47857;DHT22;33618;49.972;8.242;2023-05-10T03:09:52;13.00;99.90
47857;DHT22;33618;49.972;8.242;2023-05-10T03:17:51;13.00;99.90
47857;DHT22;33618;49.972;8.242;2023-05-10T03:20:42;13.00;99.90
47857;DHT22;33618;49.972;8.242;2023-05-10T03:27:00;13.10;99.90
47857;DHT22;33618;49.972;8.242;2023-05-10T03:33:17;13.00;99.90
47857;DHT22;33618;49.972;8.242;2023-05-10T03:35:43;13.10;99.90
47857;DHT22;33618;49.972;8.242;2023-05-10T03:38:14;13.00;99.90
47857;DHT22;33618;49.972;8.242;2023-05-10T03:44:02;13.00;99.90
47857;DHT22;33618;49.972;8.242;2023-05-10T03:50:11;13.10;99.90
47857;DHT22;33618;49.972;8.242;2023-05-10T03:52:41;13.10;99.90
47857;DHT22;33618;49.972;8.242;2023-05-10T03:55:08;13.20;99.90
47857;DHT22;33618;49.972;8.242;2023-05-10T03:57:38;13.10;99.90
47857;DHT22;33618;49.972;8.242;2023-05-10T04:00:08;13.10;99.90
47857;DHT22;33618;49.972;8.242;2023-05-10T04:02:41;13.20;99.90
47857;DHT22;33618;49.972;8.242;2023-05-10T04:05:11;13.20;99.90
47857;DHT22;33618;49.972;8.242;2023-05-10T04:07:40;13.20;99.90
47857;DHT22;33618;49.972;8.242;2023-05-10T04:10:11;13.10;99.90
47857;DHT22;33618;49.972;8.242;2023-05-10T04:12:43;13.10;99.90
47857;DHT22;33618;49.972;8.242;2023-05-10T04:15:10;13.20;99.90
47857;DHT22;33618;49.972;8.242;2023-05-10T04:17:41;13.10;99.90
47857;DHT22;33618;49.972;8.242;2023-05-10T04:20:19;13.10;99.90
47857;DHT22;33618;49.972;8.242;2023-05-10T04:22:47;13.20;99.90
47857;DHT22;33618;49.972;8.242;2023-05-10T04:25:17;13.10;99.90
47857;DHT22;33618;49.972;8.242;2023-05-10T04:27:47;13.10;99.90
47857;DHT22;33618;49.972;8.242;2023-05-10T04:30:14;13.10;99.90
47857;DHT22;33618;49.972;8.242;2023-05-10T04:32:42;13.10;99.90
47857;DHT22;33618;49.972;8.242;2023-05-10T04:35:09;13.20;99.90
47857;DHT22;33618;49.972;8.242;2023-05-10T04:37:37;13.20;99.90
47857;DHT22;33618;49.972;8.242;2023-05-10T04:40:05;13.20;99.90
47857;DHT22;33618;49.972;8.242;2023-05-10T04:42:33;13.20;99.90
47857;DHT22;33618;49.972;8.242;2023-05-10T04:45:04;13.20;99.90
47857;DHT22;33618;49.972;8.242;2023-05-10T04:47:33;13.20;99.90
47857;DHT22;33618;49.972;8.242;2023-05-10T04:50:01;13.20;99.90
47857;DHT22;33618;49.972;8.242;2023-05-10T04:52:29;13.30;99.90
47857;DHT22;33618;49.972;8.242;2023-05-10T04:54:56;13.20;99.90
47857;DHT22;33618;49.972;8.242;2023-05-10T04:57:23;13.30;99.90
47857;DHT22;33618;49.972;8.242;2023-05-10T05:00:00;13.30;99.90
47857;DHT22;33618;49.972;8.242;2023-05-10T05:02:36;13.30;99.90
47857;DHT22;33618;49.972;8.242;2023-05-10T05:05:03;13.20;99.90
47857;DHT22;33618;49.972;8.242;2023-05-10T05:07:33;13.20;99.90
47857;DHT22;33618;49.972;8.242;2023-05-10T05:10:00;13.20;99.90
47857;DHT22;33618;49.972;8.242;2023-05-10T05:12:28;13.20;99.90
47857;DHT22;33618;49.972;8.242;2023-05-10T05:14:57;13.20;99.90
47857;DHT22;33618;49.972;8.242;2023-05-10T05:18:07;13.20;99.90
47857;DHT22;33618;49.972;8.242;2023-05-10T05:21:18;13.20;99.90
47857;DHT22;33618;49.972;8.242;2023-05-10T05:24:35;13.00;99.90
47857;DHT22;33618;49.972;8.242;2023-05-10T05:27:55;13.10;99.90
47857;DHT22;33618;49.972;8.242;2023-05-10T05:31:19;13.00;99.90
47857;DHT22;33618;49.972;8.242;2023-05-10T07:33:42;15.50;99.90
47857;DHT22;33618;49.972;8.242;2023-05-10T07:36:17;15.50;99.90
47857;DHT22;33618;49.972;8.242;2023-05-10T08:32:27;16.10;99.90
47857;DHT22;33618;49.972;8.242;2023-05-10T08:34:54;16.30;99.90
47857;DHT22;33618;49.972;8.242;2023-05-10T08:37:25;16.20;99.90
47857;DHT22;33618;49.972;8.242;2023-05-10T08:40:06;16.30;99.90
47857;DHT22;33618;49.972;8.242;2023-05-10T08:42:39;16.50;99.90
47857;DHT22;33618;49.972;8.242;2023-05-10T08:46:05;16.60;99.90
47857;DHT22;33618;49.972;8.242;2023-05-10T08:48:54;16.40;99.90
47857;DHT22;33618;49.972;8.242;2023-05-10T08:51:24;16.10;99.90
47857;DHT22;33618;49.972;8.242;2023-05-10T08:53:59;15.90;99.90
47857;DHT22;33618;49.972;8.242;2023-05-10T08:56:27;15.80;99.90
47857;DHT22;33618;49.972;8.242;2023-05-10T08:58:53;15.70;99.90
47857;DHT22;33618;49.972;8.242;2023-05-10T09:01:21;15.70;99.90
47857;DHT22;33618;49.972;8.242;2023-05-10T09:03:49;15.70;99.90
47857;DHT22;33618;49.972;8.242;2023-05-10T09:06:17;15.60;99.90
47857;DHT22;33618;49.972;8.242;2023-05-10T09:08:44;15.50;99.90
47857;DHT22;33618;49.972;8.242;2023-05-10T09:11:12;15.50;99.90
47857;DHT22;33618;49.972;8.242;2023-05-10T09:13:39;15.50;99.90
47857;DHT22;33618;49.972;8.242;2023-05-10T09:16:07;15.60;99.90
47857;DHT22;33618;49.972;8.242;2023-05-10T09:18:47;15.60;99.90
47857;DHT22;33618;49.972;8.242;2023-05-10T09:21:13;15.60;99.90
47857;DHT22;33618;49.972;8.242;2023-05-10T09:23:45;15.80;99.90
47857;DHT22;33618;49.972;8.242;2023-05-10T09:26:14;15.90;99.90
47857;DHT22;33618;49.972;8.242;2023-05-10T09:29:10;16.00;99.90
47857;DHT22;33618;49.972;8.242;2023-05-10T09:31:48;16.10;99.90
47857;DHT22;33618;49.972;8.242;2023-05-10T09:34:20;16.10;99.90
47857;DHT22;33618;49.972;8.242;2023-05-10T09:36:58;16.20;99.90
47857;DHT22;33618;49.972;8.242;2023-05-10T09:39:34;16.30;99.90
47857;DHT22;33618;49.972;8.242;2023-05-10T09:42:08;16.30;99.90
47857;DHT22;33618;49.972;8.242;2023-05-10T09:44:36;16.20;99.90
47857;DHT22;33618;49.972;8.242;2023-05-10T09:47:03;16.30;99.90
47857;DHT22;33618;49.972;8.242;2023-05-10T09:49:30;16.70;99.90
47857;DHT22;33618;49.972;8.242;2023-05-10T09:52:02;16.80;99.90
47857;DHT22;33618;49.972;8.242;2023-05-10T09:54:29;17.70;99.90
47857;DHT22;33618;49.972;8.242;2023-05-10T09:56:56;18.40;99.90
47857;DHT22;33618;49.972;8.242;2023-05-10T09:59:25;19.00;99.90
47857;DHT22;33618;49.972;8.242;2023-05-10T10:01:56;19.20;99.90
47857;DHT22;33618;49.972;8.242;2023-05-10T10:04:23;18.90;99.90
47857;DHT22;33618;49.972;8.242;2023-05-10T10:07:03;18.60;99.90
47857;DHT22;33618;49.972;8.242;2023-05-10T10:09:31;18.40;99.90
47857;DHT22;33618;49.972;8.242;2023-05-10T10:12:02;18.10;99.90
47857;DHT22;33618;49.972;8.242;2023-05-10T10:14:30;18.50;99.00
47857;DHT22;33618;49.972;8.242;2023-05-10T10:16:57;18.80;98.80
47857;DHT22;33618;49.972;8.242;2023-05-10T10:19:35;19.00;96.50
47857;DHT22;33618;49.972;8.242;2023-05-10T10:22:03;19.00;95.50
47857;DHT22;33618;49.972;8.242;2023-05-10T10:24:30;18.90;95.50
47857;DHT22;33618;49.972;8.242;2023-05-10T10:27:15;18.80;96.00
47857;DHT22;33618;49.972;8.242;2023-05-10T10:30:07;18.90;97.30
47857;DHT22;33618;49.972;8.242;2023-05-10T10:32:59;18.50;94.00
47857;DHT22;33618;49.972;8.242;2023-05-10T10:35:43;18.20;94.70
47857;DHT22;33618;49.972;8.242;2023-05-10T10:38:12;18.00;95.20
47857;DHT22;33618;49.972;8.242;2023-05-10T10:40:40;17.90;97.30
47857;DHT22;33618;49.972;8.242;2023-05-10T10:43:26;17.80;97.00
47857;DHT22;33618;49.972;8.242;2023-05-10T10:46:16;17.80;96.90
47857;DHT22;33618;49.972;8.242;2023-05-10T10:48:49;17.40;98.30
47857;DHT22;33618;49.972;8.242;2023-05-10T10:51:16;17.10;99.90
47857;DHT22;33618;49.972;8.242;2023-05-10T10:53:43;17.00;99.90
47857;DHT22;33618;49.972;8.242;2023-05-10T10:56:12;16.80;99.90
47857;DHT22;33618;49.972;8.242;2023-05-10T10:58:42;16.80;99.90
47857;DHT22;33618;49.972;8.242;2023-05-10T11:01:19;16.80;99.90
47857;DHT22;33618;49.972;8.242;2023-05-10T11:06:34;17.00;99.90
47857;DHT22;33618;49.972;8.242;2023-05-10T11:09:07;17.20;99.90
47857;DHT22;33618;49.972;8.242;2023-05-10T11:11:53;17.50;97.90
47857;DHT22;33618;49.972;8.242;2023-05-10T11:14:22;17.70;97.40
47857;DHT22;33618;49.972;8.242;2023-05-10T11:16:49;18.00;96.70
47857;DHT22;33618;49.972;8.242;2023-05-10T11:19:17;18.20;95.90
47857;DHT22;33618;49.972;8.242;2023-05-10T11:24:18;18.60;95.50
47857;DHT22;33618;49.972;8.242;2023-05-10T11:26:49;19.00;95.80
47857;DHT22;33618;49.972;8.242;2023-05-10T11:29:16;19.00;94.20
47857;DHT22;33618;49.972;8.242;2023-05-10T11:31:44;18.90;93.70
47857;DHT22;33618;49.972;8.242;2023-05-10T11:34:28;19.10;92.90
47857;DHT22;33618;49.972;8.242;2023-05-10T11:37:04;19.30;93.00
47857;DHT22;33618;49.972;8.242;2023-05-10T11:39:32;19.30;91.70
47857;DHT22;33618;49.972;8.242;2023-05-10T11:42:00;19.30;92.10
47857;DHT22;33618;49.972;8.242;2023-05-10T11:44:33;19.70;92.00
47857;DHT22;33618;49.972;8.242;2023-05-10T11:47:03;20.30;91.00
47857;DHT22;33618;49.972;8.242;2023-05-10T11:49:30;20.40;90.50
47857;DHT22;33618;49.972;8.242;2023-05-10T11:52:07;20.30;89.50
47857;DHT22;33618;49.972;8.242;2023-05-10T11:54:34;20.20;89.60
47857;DHT22;33618;49.972;8.242;2023-05-10T11:57:04;20.50;88.80
47857;DHT22;33618;49.972;8.242;2023-05-10T11:59:31;20.40;87.40
47857;DHT22;33618;49.972;8.242;2023-05-10T12:01:58;20.30;87.60
47857;DHT22;33618;49.972;8.242;2023-05-10T12:04:25;20.60;89.10
47857;DHT22;33618;49.972;8.242;2023-05-10T12:06:52;20.60;88.40
47857;DHT22;33618;49.972;8.242;2023-05-10T12:09:19;20.00;89.60
47857;DHT22;33618;49.972;8.242;2023-05-10T12:12:05;19.60;90.80
47857;DHT22;33618;49.972;8.242;2023-05-10T12:14:34;19.30;92.00
47857;DHT22;33618;49.972;8.242;2023-05-10T12:17:31;19.10;92.30
47857;DHT22;33618;49.972;8.242;2023-05-10T12:20:13;19.20;91.50
47857;DHT22;33618;49.972;8.242;2023-05-10T12:22:46;19.20;89.40
47857;DHT22;33618;49.972;8.242;2023-05-10T12:25:14;19.20;90.60
47857;DHT22;33618;49.972;8.242;2023-05-10T12:27:42;19.70;90.70
47857;DHT22;33618;49.972;8.242;2023-05-10T12:30:19;19.60;90.50
47857;DHT22;33618;49.972;8.242;2023-05-10T12:32:47;19.30;90.20
47857;DHT22;33618;49.972;8.242;2023-05-10T12:35:13;19.10;89.40
47857;DHT22;33618;49.972;8.242;2023-05-10T12:37:41;19.00;90.00
47857;DHT22;33618;49.972;8.242;2023-05-10T12:40:10;18.90;91.20
47857;DHT22;33618;49.972;8.242;2023-05-10T12:42:38;19.00;89.80
47857;DHT22;33618;49.972;8.242;2023-05-10T12:45:06;18.80;90.50
47857;DHT22;33618;49.972;8.242;2023-05-10T12:47:34;18.60;91.00
47857;DHT22;33618;49.972;8.242;2023-05-10T12:50:01;18.60;90.70
47857;DHT22;33618;49.972;8.242;2023-05-10T12:52:29;19.00;90.80
47857;DHT22;33618;49.972;8.242;2023-05-10T12:54:56;19.30;90.80
47857;DHT22;33618;49.972;8.242;2023-05-10T12:57:23;19.50;90.00
47857;DHT22;33618;49.972;8.242;2023-05-10T12:59:50;19.40;90.50
47857;DHT22;33618;49.972;8.242;2023-05-10T13:02:17;19.50;89.60
47857;DHT22;33618;49.972;8.242;2023-05-10T13:04:48;19.60;90.20
47857;DHT22;33618;49.972;8.242;2023-05-10T13:07:16;20.10;90.30
47857;DHT22;33618;49.972;8.242;2023-05-10T13:09:43;20.40;89.70
47857;DHT22;33618;49.972;8.242;2023-05-10T13:12:10;20.20;90.10
47857;DHT22;33618;49.972;8.242;2023-05-10T13:14:37;20.20;90.20
47857;DHT22;33618;49.972;8.242;2023-05-10T13:17:04;20.30;88.80
47857;DHT22;33618;49.972;8.242;2023-05-10T13:19:31;20.10;89.20
47857;DHT22;33618;49.972;8.242;2023-05-10T13:21:58;20.70;88.10
47857;DHT22;33618;49.972;8.242;2023-05-10T13:24:25;21.00;87.70
47857;DHT22;33618;49.972;8.242;2023-05-10T13:26:52;21.40;85.40
47857;DHT22;33618;49.972;8.242;2023-05-10T13:29:21;21.60;86.40
47857;DHT22;33618;49.972;8.242;2023-05-10T13:31:49;21.70;87.30
47857;DHT22;33618;49.972;8.242;2023-05-10T13:34:16;21.40;86.00
47857;DHT22;33618;49.972;8.242;2023-05-10T13:36:52;21.80;86.40
47857;DHT22;33618;49.972;8.242;2023-05-10T13:39:20;21.90;84.60
47857;DHT22;33618;49.972;8.242;2023-05-10T13:41:47;22.00;85.10
47857;DHT22;33618;49.972;8.242;2023-05-10T13:44:14;21.90;84.50
47857;DHT22;33618;49.972;8.242;2023-05-10T13:46:42;21.50;85.10
47857;DHT22;33618;49.972;8.242;2023-05-10T13:49:09;21.50;85.80
47857;DHT22;33618;49.972;8.242;2023-05-10T13:51:36;21.30;85.20
47857;DHT22;33618;49.972;8.242;2023-05-10T13:54:03;21.40;84.90
47857;DHT22;33618;49.972;8.242;2023-05-10T13:56:30;21.50;85.20
47857;DHT22;33618;49.972;8.242;2023-05-10T13:58:57;21.50;86.30
47857;DHT22;33618;49.972;8.242;2023-05-10T14:01:24;21.80;85.50
47857;DHT22;33618;49.972;8.242;2023-05-10T14:03:51;21.70;85.20
47857;DHT22;33618;49.972;8.242;2023-05-10T14:06:18;21.70;86.30
47857;DHT22;33618;49.972;8.242;2023-05-10T14:08:45;21.50;84.80
47857;DHT22;33618;49.972;8.242;2023-05-10T14:11:12;21.20;84.70
47857;DHT22;33618;49.972;8.242;2023-05-10T14:13:39;20.80;86.70
47857;DHT22;33618;49.972;8.242;2023-05-10T14:16:06;20.60;84.20
47857;DHT22;33618;49.972;8.242;2023-05-10T14:18:33;20.50;85.80
47857;DHT22;33618;49.972;8.242;2023-05-10T14:21:02;20.60;85.20
47857;DHT22;33618;49.972;8.242;2023-05-10T14:23:29;20.80;84.60
47857;DHT22;33618;49.972;8.242;2023-05-10T14:25:56;20.40;84.80
47857;DHT22;33618;49.972;8.242;2023-05-10T14:28:23;20.30;85.10
47857;DHT22;33618;49.972;8.242;2023-05-10T14:30:51;20.60;83.80
47857;DHT22;33618;49.972;8.242;2023-05-10T14:33:18;20.80;84.20
47857;DHT22;33618;49.972;8.242;2023-05-10T14:35:46;20.80;84.40
47857;DHT22;33618;49.972;8.242;2023-05-10T14:38:14;20.90;84.90
47857;DHT22;33618;49.972;8.242;2023-05-10T14:40:41;20.70;83.50
47857;DHT22;33618;49.972;8.242;2023-05-10T14:43:08;20.60;84.00
47857;DHT22;33618;49.972;8.242;2023-05-10T14:45:35;20.60;82.50
47857;DHT22;33618;49.972;8.242;2023-05-10T14:48:02;20.70;83.50
47857;DHT22;33618;49.972;8.242;2023-05-10T14:50:31;20.80;82.60
47857;DHT22;33618;49.972;8.242;2023-05-10T14:53:03;20.70;82.00
47857;DHT22;33618;49.972;8.242;2023-05-10T14:55:30;20.50;82.80
47857;DHT22;33618;49.972;8.242;2023-05-10T14:57:57;20.20;83.40
47857;DHT22;33618;49.972;8.242;2023-05-10T15:00:25;20.30;83.60
47857;DHT22;33618;49.972;8.242;2023-05-10T15:02:52;20.40;84.40
47857;DHT22;33618;49.972;8.242;2023-05-10T15:05:20;20.70;84.70
47857;DHT22;33618;49.972;8.242;2023-05-10T15:07:47;21.00;84.10
47857;DHT22;33618;49.972;8.242;2023-05-10T15:10:14;21.00;83.80
47857;DHT22;33618;49.972;8.242;2023-05-10T15:12:41;20.90;83.10
47857;DHT22;33618;49.972;8.242;2023-05-10T15:15:08;20.90;83.40
47857;DHT22;33618;49.972;8.242;2023-05-10T15:17:35;21.00;82.30
47857;DHT22;33618;49.972;8.242;2023-05-10T15:20:02;21.20;83.80
47857;DHT22;33618;49.972;8.242;2023-05-10T15:22:30;21.30;82.00
47857;DHT22;33618;49.972;8.242;2023-05-10T15:25:00;21.00;82.80
47857;DHT22;33618;49.972;8.242;2023-05-10T15:27:27;20.80;83.80
47857;DHT22;33618;49.972;8.242;2023-05-10T15:29:54;20.70;83.70
47857;DHT22;33618;49.972;8.242;2023-05-10T15:32:21;21.00;83.30
47857;DHT22;33618;49.972;8.242;2023-05-10T15:34:48;21.40;83.70
47857;DHT22;33618;49.972;8.242;2023-05-10T15:37:15;21.60;82.00
47857;DHT22;33618;49.972;8.242;2023-05-10T15:39:42;21.40;81.80
47857;DHT22;33618;49.972;8.242;2023-05-10T15:42:09;21.50;83.00
47857;DHT22;33618;49.972;8.242;2023-05-10T15:44:36;21.80;82.30
47857;DHT22;33618;49.972;8.242;2023-05-10T15:47:05;21.90;81.50
47857;DHT22;33618;49.972;8.242;2023-05-10T15:49:32;21.70;81.40
47857;DHT22;33618;49.972;8.242;2023-05-10T15:51:59;21.20;81.10
47857;DHT22;33618;49.972;8.242;2023-05-10T15:54:26;20.90;81.80
47857;DHT22;33618;49.972;8.242;2023-05-10T15:56:53;20.90;81.40
47857;DHT22;33618;49.972;8.242;2023-05-10T15:59:20;21.20;82.60
47857;DHT22;33618;49.972;8.242;2023-05-10T16:01:47;21.30;80.40
47857;DHT22;33618;49.972;8.242;2023-05-10T16:04:14;21.50;79.80
47857;DHT22;33618;49.972;8.242;2023-05-10T16:06:41;21.20;79.70
47857;DHT22;33618;49.972;8.242;2023-05-10T16:09:08;21.00;79.90
47857;DHT22;33618;49.972;8.242;2023-05-10T16:11:36;21.10;79.80
47857;DHT22;33618;49.972;8.242;2023-05-10T16:14:03;21.00;80.10
47857;DHT22;33618;49.972;8.242;2023-05-10T16:16:32;21.40;80.00
47857;DHT22;33618;49.972;8.242;2023-05-10T16:18:59;21.60;79.60
47857;DHT22;33618;49.972;8.242;2023-05-10T16:21:27;21.90;79.90
47857;DHT22;33618;49.972;8.242;2023-05-10T16:23:55;21.60;79.10
47857;DHT22;33618;49.972;8.242;2023-05-10T16:26:22;21.80;78.80
47857;DHT22;33618;49.972;8.242;2023-05-10T16:28:49;21.80;78.30
47857;DHT22;33618;49.972;8.242;2023-05-10T16:31:16;21.70;79.00
47857;DHT22;33618;49.972;8.242;2023-05-10T16:33:44;21.70;77.50
47857;DHT22;33618;49.972;8.242;2023-05-10T16:36:11;21.80;78.50
47857;DHT22;33618;49.972;8.242;2023-05-10T16:38:38;21.60;77.90
47857;DHT22;33618;49.972;8.242;2023-05-10T16:41:05;21.60;78.40
47857;DHT22;33618;49.972;8.242;2023-05-10T16:43:32;21.50;77.50
47857;DHT22;33618;49.972;8.242;2023-05-10T16:45:59;21.10;78.00
47857;DHT22;33618;49.972;8.242;2023-05-10T16:48:26;20.90;76.70
47857;DHT22;33618;49.972;8.242;2023-05-10T16:50:53;20.90;77.50
47857;DHT22;33618;49.972;8.242;2023-05-10T16:53:22;20.70;77.30
47857;DHT22;33618;49.972;8.242;2023-05-10T16:55:49;20.30;77.00
47857;DHT22;33618;49.972;8.242;2023-05-10T16:58:16;20.20;77.10
47857;DHT22;33618;49.972;8.242;2023-05-10T17:00:43;20.30;78.40
47857;DHT22;33618;49.972;8.242;2023-05-10T17:03:09;20.30;77.40
47857;DHT22;33618;49.972;8.242;2023-05-10T17:05:37;20.20;76.90
47857;DHT22;33618;49.972;8.242;2023-05-10T17:08:04;20.20;77.10
47857;DHT22;33618;49.972;8.242;2023-05-10T17:10:31;20.30;78.00
47857;DHT22;33618;49.972;8.242;2023-05-10T17:12:58;20.20;77.40
47857;DHT22;33618;49.972;8.242;2023-05-10T17:15:25;20.30;76.60
47857;DHT22;33618;49.972;8.242;2023-05-10T17:17:52;20.30;76.60
47857;DHT22;33618;49.972;8.242;2023-05-10T17:20:18;20.20;76.90
47857;DHT22;33618;49.972;8.242;2023-05-10T17:22:45;20.20;76.80
47857;DHT22;33618;49.972;8.242;2023-05-10T17:25:12;20.10;77.20
47857;DHT22;33618;49.972;8.242;2023-05-10T17:27:39;20.20;77.20
47857;DHT22;33618;49.972;8.242;2023-05-10T17:30:07;20.20;76.40
47857;DHT22;33618;49.972;8.242;2023-05-10T17:32:34;20.00;76.50
47857;DHT22;33618;49.972;8.242;2023-05-10T17:35:01;20.00;77.70
47857;DHT22;33618;49.972;8.242;2023-05-10T17:37:30;20.10;77.40
47857;DHT22;33618;49.972;8.242;2023-05-10T17:39:59;20.00;78.30
47857;DHT22;33618;49.972;8.242;2023-05-10T17:42:25;19.70;78.40
47857;DHT22;33618;49.972;8.242;2023-05-10T17:44:52;19.70;77.90
47857;DHT22;33618;49.972;8.242;2023-05-10T17:47:19;19.60;78.70
47857;DHT22;33618;49.972;8.242;2023-05-10T17:49:46;19.40;79.00
47857;DHT22;33618;49.972;8.242;2023-05-10T17:52:13;19.30;79.00
47857;DHT22;33618;49.972;8.242;2023-05-10T17:54:40;19.20;79.70
47857;DHT22;33618;49.972;8.242;2023-05-10T17:57:07;19.20;80.20
47857;DHT22;33618;49.972;8.242;2023-05-10T17:59:34;19.20;79.90
47857;DHT22;33618;49.972;8.242;2023-05-10T18:02:01;19.20;81.40
47857;DHT22;33618;49.972;8.242;2023-05-10T18:04:28;19.10;82.20
47857;DHT22;33618;49.972;8.242;2023-05-10T18:06:55;19.10;81.60
47857;DHT22;33618;49.972;8.242;2023-05-10T18:09:27;18.90;82.30
47857;DHT22;33618;49.972;8.242;2023-05-10T18:11:54;18.70;82.00
47857;DHT22;33618;49.972;8.242;2023-05-10T18:14:21;18.60;82.80
47857;DHT22;33618;49.972;8.242;2023-05-10T18:17:06;18.60;84.00
47857;DHT22;33618;49.972;8.242;2023-05-10T18:19:33;18.40;83.20
47857;DHT22;33618;49.972;8.242;2023-05-10T18:22:00;18.30;84.70
47857;DHT22;33618;49.972;8.242;2023-05-10T18:24:27;18.20;84.40
47857;DHT22;33618;49.972;8.242;2023-05-10T18:27:06;18.10;84.90
47857;DHT22;33618;49.972;8.242;2023-05-10T18:29:34;18.10;85.30
47857;DHT22;33618;49.972;8.242;2023-05-10T18:32:02;18.10;86.70
47857;DHT22;33618;49.972;8.242;2023-05-10T18:34:29;18.00;85.90
47857;DHT22;33618;49.972;8.242;2023-05-10T18:36:56;17.90;86.70
47857;DHT22;33618;49.972;8.242;2023-05-10T18:39:23;17.70;86.10
47857;DHT22;33618;49.972;8.242;2023-05-10T18:41:50;17.70;87.10
47857;DHT22;33618;49.972;8.242;2023-05-10T18:44:17;17.60;86.60
47857;DHT22;33618;49.972;8.242;2023-05-10T18:46:44;17.50;86.10
47857;DHT22;33618;49.972;8.242;2023-05-10T18:49:12;17.50;86.50
47857;DHT22;33618;49.972;8.242;2023-05-10T18:51:39;17.50;86.90
47857;DHT22;33618;49.972;8.242;2023-05-10T18:54:06;17.40;88.30
47857;DHT22;33618;49.972;8.242;2023-05-10T18:56:32;17.40;89.30
47857;DHT22;33618;49.972;8.242;2023-05-10T18:58:59;17.20;89.20
47857;DHT22;33618;49.972;8.242;2023-05-10T19:01:26;17.20;89.40
47857;DHT22;33618;49.972;8.242;2023-05-10T19:03:53;17.10;90.90
47857;DHT22;33618;49.972;8.242;2023-05-10T19:06:20;17.00;91.30
47857;DHT22;33618;49.972;8.242;2023-05-10T19:08:47;16.80;91.30
47857;DHT22;33618;49.972;8.242;2023-05-10T19:11:14;16.80;91.90
47857;DHT22;33618;49.972;8.242;2023-05-10T19:13:41;16.60;91.90
47857;DHT22;33618;49.972;8.242;2023-05-10T19:16:13;16.60;91.90
47857;DHT22;33618;49.972;8.242;2023-05-10T19:18:45;16.50;92.00